Time;durP1;ratioP1;P1;durP2;ratioP2;P2;SDS_P1;SDS_P2;PMS_P1;PMS_P2;Temp;Humidity;BMP_temperature;BMP_pressure;BME280_temperature;BME280_humidity;BME280_pressure;Samples;Min_cycle;Max_cycle;Signal;HPM_P1;HPM_P2
2024/03/17 00:00:40;;;;;;;5.30;4.53;;;;;;;7.39;71.47;98929.91;5114517;28;20043;-74
2024/03/17 00:03:08;;;;;;;6.22;4.22;;;;;;;7.38;71.77;98933.59;5132099;28;20038;-74
2024/03/17 00:05:35;;;;;;;6.32;4.93;;;;;;;7.44;72.24;98943.50;5117069;28;20036;-74
2024/03/17 00:08:00;;;;;;;6.55;4.70;;;;;;;7.37;72.21;98937.31;5104978;28;20020;-74
2024/03/17 00:10:26;;;;;;;6.18;4.90;;;;;;;7.48;72.34;98944.72;5093408;28;20036;-74
2024/03/17 00:12:51;;;;;;;7.50;5.43;;;;;;;7.48;71.49;98945.56;5102505;28;20034;-74
2024/03/17 00:15:17;;;;;;;13.00;10.00;;;;;;;7.51;71.05;98949.69;5097148;28;20540;-74
2024/03/17 00:17:42;;;;;;;11.20;7.25;;;;;;;7.34;71.96;98933.19;5062041;28;20054;-74
2024/03/17 00:20:14;;;;;;;6.90;6.03;;;;;;;7.42;71.87;98934.84;5098509;28;20121;-73
2024/03/17 00:22:40;;;;;;;8.40;6.50;;;;;;;7.33;72.39;98925.34;5100966;28;20072;-72
2024/03/17 00:25:06;;;;;;;6.95;6.00;;;;;;;7.24;71.60;98914.00;5094566;28;20028;-73
2024/03/17 00:27:33;;;;;;;7.78;6.70;;;;;;;7.30;71.14;98937.31;5080417;28;20075;-73
2024/03/17 00:29:58;;;;;;;8.32;6.88;;;;;;;7.16;71.20;98924.13;5081789;28;20032;-73
2024/03/17 00:32:24;;;;;;;6.40;5.35;;;;;;;7.20;71.50;98946.78;5077596;28;20040;-73
2024/03/17 00:34:49;;;;;;;8.88;5.43;;;;;;;7.06;71.89;98934.41;5095448;28;20543;-74
2024/03/17 00:37:14;;;;;;;6.63;4.63;;;;;;;6.90;72.54;98936.44;5073130;28;20047;-75
2024/03/17 00:39:40;;;;;;;4.82;4.25;;;;;;;6.71;73.03;98923.81;5074877;28;20020;-74
2024/03/17 00:42:06;;;;;;;6.50;4.90;;;;;;;6.79;73.37;98944.25;5077774;28;20119;-74
2024/03/17 00:44:31;;;;;;;6.50;4.53;;;;;;;6.81;73.62;98952.88;5072496;28;20039;-74
2024/03/17 00:46:57;;;;;;;8.70;4.65;;;;;;;6.82;73.04;98966.06;5108806;28;20031;-75
2024/03/17 00:49:22;;;;;;;6.45;4.13;;;;;;;6.83;73.92;98950.84;5095629;28;20517;-75
2024/03/17 00:51:49;;;;;;;4.55;3.80;;;;;;;6.77;73.30;98947.09;5062993;28;20093;-73
2024/03/17 00:54:17;;;;;;;4.82;3.90;;;;;;;6.80;73.73;98941.34;5076814;28;20035;-74
2024/03/17 00:56:43;;;;;;;4.53;3.83;;;;;;;6.84;73.88;98939.91;5095222;28;20118;-74
2024/03/17 00:59:08;;;;;;;5.95;4.20;;;;;;;6.78;73.34;98932.69;5081232;28;20166;-75
2024/03/17 01:01:33;;;;;;;7.15;4.13;;;;;;;6.85;73.72;98938.91;5087043;28;20036;-74
2024/03/17 01:03:59;;;;;;;5.47;4.18;;;;;;;6.76;73.43;98934.75;5073023;28;20032;-75
2024/03/17 01:06:24;;;;;;;6.47;3.97;;;;;;;6.84;73.29;98947.94;5081486;28;20515;-75
2024/03/17 01:08:51;;;;;;;6.95;4.10;;;;;;;6.88;73.64;98943.81;5076567;28;20027;-75
2024/03/17 01:11:18;;;;;;;6.60;4.38;;;;;;;6.81;73.63;98924.25;5073254;28;20044;-74
2024/03/17 01:13:44;;;;;;;4.80;4.00;;;;;;;6.82;73.17;98944.66;5074516;28;20208;-75
2024/03/17 01:16:10;;;;;;;6.18;4.35;;;;;;;6.53;73.45;98939.63;5076576;28;20449;-75
2024/03/17 01:18:37;;;;;;;5.13;4.15;;;;;;;6.69;73.17;98949.97;5093410;28;20051;-76
2024/03/17 01:21:02;;;;;;;4.82;4.22;;;;;;;6.71;72.97;98947.91;5072997;28;20041;-75
2024/03/17 01:23:28;;;;;;;4.72;3.92;;;;;;;6.65;73.78;98948.69;5076665;28;20032;-75
2024/03/17 01:25:53;;;;;;;4.93;3.88;;;;;;;6.65;73.13;98954.06;5084119;28;20036;-75
2024/03/17 01:28:18;;;;;;;4.78;4.20;;;;;;;6.72;73.22;98954.91;5093477;28;20031;-75
2024/03/17 01:30:44;;;;;;;5.78;4.03;;;;;;;6.76;73.62;98956.16;5062324;28;20066;-75
2024/03/17 01:33:10;;;;;;;6.40;3.88;;;;;;;6.67;73.17;98932.47;5087717;28;20024;-73
2024/03/17 01:35:35;;;;;;;5.82;4.00;;;;;;;6.54;74.33;98946.59;5075900;28;20050;-73
2024/03/17 01:38:01;;;;;;;7.22;4.07;;;;;;;6.52;74.30;98932.63;5083816;28;20020;-74
2024/03/17 01:40:27;;;;;;;6.70;4.60;;;;;;;6.71;74.29;98942.56;5083593;28;20120;-74
2024/03/17 01:42:52;;;;;;;5.05;4.03;;;;;;;6.61;73.78;98928.72;5075798;28;20028;-74
2024/03/17 01:45:27;;;;;;;7.70;4.00;;;;;;;6.63;73.79;98945.41;5070173;28;20398;-74
2024/03/17 01:47:53;;;;;;;6.38;3.72;;;;;;;6.59;74.43;98922.75;5087811;28;20050;-74
2024/03/17 01:50:24;;;;;;;6.57;4.00;;;;;;;6.61;74.60;98912.66;5068461;28;20035;-73
2024/03/17 01:52:51;;;;;;;6.22;3.97;;;;;;;6.74;73.66;98925.28;5077071;28;20036;-73
2024/03/17 01:55:17;;;;;;;5.43;3.55;;;;;;;6.60;74.36;98913.72;5057692;28;20016;-73
2024/03/17 01:57:42;;;;;;;6.80;3.72;;;;;;;6.68;74.92;98920.72;5080268;28;20032;-73
2024/03/17 02:00:09;;;;;;;4.80;3.53;;;;;;;6.68;75.16;98926.06;5074998;28;20067;-73
2024/03/17 02:02:35;;;;;;;5.07;3.70;;;;;;;6.56;74.26;98915.13;5075690;28;20032;-73
2024/03/17 02:05:01;;;;;;;4.07;3.38;;;;;;;6.59;74.45;98912.06;5090524;28;20043;-72
2024/03/17 02:07:26;;;;;;;4.93;3.28;;;;;;;6.58;74.92;98910.38;5088442;28;20074;-72
2024/03/17 02:09:51;;;;;;;6.18;4.05;;;;;;;6.50;73.88;98889.19;5083691;28;20025;-73
2024/03/17 02:12:17;;;;;;;6.78;4.05;;;;;;;6.53;73.37;98894.13;5063187;28;20036;-73
2024/03/17 02:14:42;;;;;;;5.95;3.70;;;;;;;6.67;73.21;98914.56;5072931;28;20020;-73
2024/03/17 02:17:08;;;;;;;5.28;4.10;;;;;;;6.59;73.31;98901.34;5072241;28;20119;-73
2024/03/17 02:19:33;;;;;;;5.75;4.80;;;;;;;6.54;73.78;98889.59;5087811;28;20030;-73
2024/03/17 02:22:00;;;;;;;4.88;3.92;;;;;;;6.64;73.61;98909.59;5075749;28;20043;-73
2024/03/17 02:24:25;;;;;;;5.72;4.35;;;;;;;6.58;73.48;98904.25;5085816;28;20069;-75
2024/03/17 02:26:50;;;;;;;6.15;3.90;;;;;;;6.49;73.82;98890.19;5075424;28;20142;-73
2024/03/17 02:29:16;;;;;;;5.18;4.10;;;;;;;6.50;74.24;98905.22;5091232;28;20035;-74
2024/03/17 02:31:41;;;;;;;6.15;3.90;;;;;;;6.54;72.66;98909.16;5093082;28;20040;-72
2024/03/17 02:34:06;;;;;;;5.45;3.83;;;;;;;6.49;73.00;98902.78;5098959;28;20024;-72
2024/03/17 02:36:32;;;;;;;4.88;3.50;;;;;;;6.37;73.57;98886.44;5102745;28;20053;-74
2024/03/17 02:41:45;;;;;;;4.03;3.40;;;;;;;6.29;73.27;98889.31;5075276;28;20049;-72
2024/03/17 02:44:11;;;;;;;4.82;3.67;;;;;;;6.28;74.03;98897.56;5074319;28;20541;-71
2024/03/17 02:46:37;;;;;;;4.43;4.00;;;;;;;6.11;72.98;98867.66;5096954;28;20023;-72
2024/03/17 02:49:03;;;;;;;5.72;4.03;;;;;;;6.12;73.61;98882.66;5086466;28;20433;-71
2024/03/17 02:51:29;;;;;;;6.43;4.43;;;;;;;6.13;74.27;98900.34;5088788;28;20074;-71
2024/03/17 02:53:54;;;;;;;5.60;4.68;;;;;;;6.11;74.28;98894.38;5085029;28;20054;-72
2024/03/17 02:56:19;;;;;;;5.35;3.75;;;;;;;6.00;74.21;98870.88;5098299;28;20027;-71
2024/03/17 02:58:46;;;;;;;6.40;4.50;;;;;;;6.00;73.68;98890.41;5086602;28;20123;-71
2024/03/17 03:01:11;;;;;;;5.43;4.30;;;;;;;6.01;73.71;98892.06;5089302;28;20040;-73
2024/03/17 03:03:37;;;;;;;5.28;4.40;;;;;;;5.89;74.53;98866.91;5068791;28;20037;-71
2024/03/17 03:06:08;;;;;;;6.95;4.55;;;;;;;5.97;74.90;98884.66;5102898;28;20047;-71
2024/03/17 03:08:35;;;;;;;5.50;4.10;;;;;;;5.79;74.37;98870.97;5090328;28;20036;-71
2024/03/17 03:11:00;;;;;;;8.00;4.25;;;;;;;5.84;75.05;98873.84;5096584;28;20559;-71
2024/03/17 03:13:26;;;;;;;5.95;4.53;;;;;;;5.74;74.56;98862.72;5091592;28;20111;-72
2024/03/17 03:15:52;;;;;;;6.68;4.63;;;;;;;5.72;74.32;98864.75;5090375;28;20037;-73
2024/03/17 03:18:18;;;;;;;8.40;4.85;;;;;;;5.67;74.67;98865.31;5073600;28;20036;-73
2024/03/17 03:20:50;;;;;;;7.78;5.00;;;;;;;5.54;74.02;98874.09;5073732;28;20099;-75
2024/03/17 03:23:15;;;;;;;5.60;4.28;;;;;;;5.49;74.50;98873.84;5085801;28;20445;-74
2024/03/17 03:25:41;;;;;;;6.28;4.88;;;;;;;5.45;74.64;98864.59;5079243;28;20024;-74
2024/03/17 03:28:06;;;;;;;6.20;4.43;;;;;;;5.49;74.14;98870.34;5091005;28;20120;-73
2024/03/17 03:30:36;;;;;;;5.90;5.10;;;;;;;5.53;74.58;98876.97;5070681;28;20016;-74
2024/03/17 03:33:04;;;;;;;7.05;4.78;;;;;;;5.44;74.57;98889.63;5088293;28;20479;-75
2024/03/17 03:35:30;;;;;;;5.53;4.65;;;;;;;5.40;74.39;98888.38;5079112;28;20059;-74
2024/03/17 03:37:55;;;;;;;6.10;4.47;;;;;;;5.33;74.83;98876.81;5081447;28;20067;-74
2024/03/17 03:40:21;;;;;;;6.53;4.85;;;;;;;5.35;74.96;98885.47;5086707;28;20024;-74
2024/03/17 03:42:47;;;;;;;7.30;4.68;;;;;;;5.26;74.81;98870.59;5085863;28;20042;-73
2024/03/17 03:45:12;;;;;;;7.13;5.03;;;;;;;5.30;74.67;98876.38;5083463;28;20070;-74
2024/03/17 03:47:42;;;;;;;6.07;4.55;;;;;;;5.31;75.04;98886.03;5074399;28;20042;-73
2024/03/17 03:50:11;;;;;;;8.68;5.35;;;;;;;5.17;74.96;98874.44;5076475;28;20479;-74
2024/03/17 03:52:37;;;;;;;6.28;4.60;;;;;;;5.12;75.03;98871.53;5081538;28;20024;-74
2024/03/17 03:55:04;;;;;;;6.53;4.97;;;;;;;5.19;75.14;98893.75;5071133;28;20055;-74
2024/03/17 03:57:30;;;;;;;8.82;5.55;;;;;;;5.10;74.68;98876.22;5082741;28;20476;-74
2024/03/17 03:59:56;;;;;;;5.95;5.35;;;;;;;5.16;75.22;98901.34;5081965;28;20059;-74
2024/03/17 04:02:21;;;;;;;7.28;5.22;;;;;;;5.05;74.85;98875.97;5060179;28;20030;-74
2024/03/17 04:04:47;;;;;;;6.70;5.05;;;;;;;5.05;75.36;98883.97;5089938;28;20126;-74
2024/03/17 04:07:13;;;;;;;8.35;5.15;;;;;;;5.14;75.04;98898.84;5104528;28;20035;-74
2024/03/17 04:09:38;;;;;;;7.43;5.18;;;;;;;5.16;75.54;98896.00;5084838;28;20402;-73
2024/03/17 04:12:04;;;;;;;6.03;4.70;;;;;;;5.13;75.70;98891.88;5090371;28;20042;-73
2024/03/17 04:14:30;;;;;;;7.00;5.50;;;;;;;5.13;75.54;98897.22;5081058;28;20036;-73
2024/03/17 04:16:56;;;;;;;5.95;5.20;;;;;;;5.05;75.66;98883.97;5104247;28;20028;-73
2024/03/17 04:19:21;;;;;;;6.20;4.85;;;;;;;5.14;76.07;98904.19;5075384;28;20117;-72
2024/03/17 04:21:46;;;;;;;5.82;4.95;;;;;;;5.01;76.12;98896.06;5079031;28;20028;-72
2024/03/17 04:24:12;;;;;;;6.68;4.90;;;;;;;5.12;76.28;98900.06;5066621;28;20512;-72
2024/03/17 04:26:38;;;;;;;5.90;4.57;;;;;;;5.22;76.59;98912.06;5054361;28;20032;-72
2024/03/17 04:29:05;;;;;;;5.32;4.25;;;;;;;5.21;77.15;98889.03;5085478;28;20061;-72
2024/03/17 04:31:31;;;;;;;7.65;4.18;;;;;;;5.24;77.26;98896.69;5058805;28;20506;-72
2024/03/17 04:33:56;;;;;;;6.22;4.78;;;;;;;5.30;77.11;98898.56;5096102;28;20039;-72
2024/03/17 04:36:22;;;;;;;10.60;7.15;;;;;;;5.35;77.17;98897.97;5085971;28;20107;-72
2024/03/17 04:38:48;;;;;;;6.90;6.07;;;;;;;5.40;76.61;98907.06;5098674;28;20032;-71
2024/03/17 04:41:19;;;;;;;8.57;5.20;;;;;;;5.34;76.36;98894.50;5089750;28;20452;-71
2024/03/17 04:43:44;;;;;;;6.78;4.97;;;;;;;5.35;76.72;98896.13;5096134;28;20082;-72
2024/03/17 04:46:11;;;;;;;6.85;5.90;;;;;;;5.42;77.18;98902.34;5104742;28;20507;-71
2024/03/17 04:48:37;;;;;;;6.93;5.40;;;;;;;5.46;76.37;98902.81;5077700;28;20040;-72
2024/03/17 04:51:03;;;;;;;7.50;5.30;;;;;;;5.53;77.10;98914.38;5083968;28;20081;-72
2024/03/17 04:53:29;;;;;;;5.90;4.65;;;;;;;5.58;77.16;98907.41;5073169;28;20032;-74
2024/03/17 04:56:05;;;;;;;6.10;4.20;;;;;;;5.69;76.28;98913.22;5094065;28;20410;-73
2024/03/17 04:58:34;;;;;;;6.03;4.75;;;;;;;5.73;76.52;98914.50;5092530;28;20031;-72
2024/03/17 05:01:09;;;;;;;5.18;4.65;;;;;;;5.67;76.99;98893.91;5073688;28;20043;-73
2024/03/17 05:03:34;;;;;;;8.38;6.20;;;;;;;5.73;77.70;98906.47;5085839;28;20043;-73
2024/03/17 05:06:01;;;;;;;6.32;4.50;;;;;;;5.58;77.88;98894.03;5085324;28;20032;-72
2024/03/17 05:08:27;;;;;;;7.03;4.43;;;;;;;5.54;77.63;98895.47;5102827;28;20074;-72
2024/03/17 05:10:57;;;;;;;6.13;4.85;;;;;;;5.32;76.92;98896.53;5085298;28;20412;-73
2024/03/17 05:13:22;;;;;;;6.13;4.63;;;;;;;5.43;77.50;98919.22;5084617;28;20450;-72
2024/03/17 05:15:47;;;;;;;6.82;4.75;;;;;;;5.44;77.36;98911.00;5088488;28;20032;-72
2024/03/17 05:18:13;;;;;;;7.35;4.13;;;;;;;5.46;77.96;98910.81;5080165;28;20072;-74
2024/03/17 05:20:38;;;;;;;4.60;4.07;;;;;;;5.51;77.20;98922.56;5087968;28;20051;-73
2024/03/17 05:23:04;;;;;;;4.93;4.32;;;;;;;5.49;77.93;98911.25;5081592;28;20403;-73
2024/03/17 05:25:29;;;;;;;5.72;4.63;;;;;;;5.45;77.71;98907.31;5086186;28;20085;-74
2024/03/17 05:27:55;;;;;;;4.50;4.05;;;;;;;5.34;76.77;98889.16;5079309;28;20047;-72
2024/03/17 05:30:20;;;;;;;6.18;4.47;;;;;;;5.44;77.03;98926.19;5087797;28;20027;-72
2024/03/17 05:32:45;;;;;;;7.93;4.00;;;;;;;5.36;77.05;98927.19;5077609;28;20127;-72
2024/03/17 05:35:11;;;;;;;5.65;4.25;;;;;;;5.39;76.95;98936.66;5082895;28;20048;-71
2024/03/17 05:37:37;;;;;;;6.68;4.35;;;;;;;5.31;76.29;98931.44;5082560;28;20044;-72
2024/03/17 05:40:02;;;;;;;6.00;4.40;;;;;;;5.35;76.98;98936.19;5086536;28;20021;-72
2024/03/17 05:42:28;;;;;;;6.68;4.35;;;;;;;5.24;77.70;98936.72;5072411;28;20036;-72
2024/03/17 05:44:53;;;;;;;9.63;4.55;;;;;;;5.18;77.64;98942.81;5076490;28;20040;-71
2024/03/17 05:47:19;;;;;;;7.68;4.50;;;;;;;5.11;77.17;98936.59;5102276;28;20031;-70
2024/03/17 05:49:45;;;;;;;5.90;4.13;;;;;;;5.11;76.88;98930.44;5075632;28;20158;-73
2024/03/17 05:54:38;;;;;;;5.53;4.15;;;;;;;5.15;77.81;98945.91;5089601;28;20036;-75
2024/03/17 05:57:04;;;;;;;6.25;4.60;;;;;;;5.17;78.09;98941.19;5081320;28;20372;-75
2024/03/17 05:59:31;;;;;;;6.30;4.15;;;;;;;5.31;77.38;98953.63;5050608;28;20050;-75
2024/03/17 06:01:56;;;;;;;7.30;4.75;;;;;;;5.28;77.82;98932.66;5070621;28;20086;-74
2024/03/17 06:04:22;;;;;;;6.28;4.78;;;;;;;5.30;77.28;98932.44;5077096;28;20432;-74
2024/03/17 06:06:48;;;;;;;5.55;4.80;;;;;;;5.34;77.77;98947.91;5072039;27;20032;-74
2024/03/17 06:09:17;;;;;;;8.52;5.20;;;;;;;5.28;77.43;98948.66;5079649;28;20019;-76
2024/03/17 06:11:43;;;;;;;6.93;4.97;;;;;;;5.14;77.95;98940.72;5082741;27;20088;-76
2024/03/17 06:14:11;;;;;;;6.18;4.65;;;;;;;5.08;77.61;98931.66;5079581;28;20016;-77
2024/03/17 06:16:37;;;;;;;7.15;4.82;;;;;;;5.13;78.40;98923.91;5090459;27;20030;-76
2024/03/17 06:19:03;;;;;;;5.93;5.32;;;;;;;5.17;78.32;98919.81;5066524;28;20391;-76
2024/03/17 06:21:28;;;;;;;6.70;5.03;;;;;;;5.23;78.13;98924.38;5070753;27;20631;-76
2024/03/17 06:23:53;;;;;;;5.47;4.68;;;;;;;5.26;78.24;98924.00;5090953;27;20027;-76
2024/03/17 06:26:20;;;;;;;6.55;4.88;;;;;;;5.41;78.37;98932.75;5080899;27;20469;-76
2024/03/17 06:28:46;;;;;;;7.20;6.00;;;;;;;5.44;78.29;98924.34;5087971;28;20024;-77
2024/03/17 06:31:11;;;;;;;7.82;5.07;;;;;;;5.44;78.63;98927.03;5082663;27;20543;-77
2024/03/17 06:33:36;;;;;;;7.55;5.43;;;;;;;5.49;78.85;98929.94;5089214;28;20028;-77
2024/03/17 06:36:06;;;;;;;6.90;5.13;;;;;;;5.38;79.03;98926.97;5092459;27;20160;-77
2024/03/17 06:38:32;;;;;;;7.40;4.95;;;;;;;5.52;79.17;98929.56;5099508;28;20032;-77
2024/03/17 06:40:58;;;;;;;9.60;8.00;;;;;;;5.53;79.08;98939.22;5089610;28;20024;-77
2024/03/17 06:43:23;;;;;;;7.78;6.45;;;;;;;5.54;78.87;98924.84;5086521;28;20097;-77
2024/03/17 06:45:59;;;;;;;6.15;5.45;;;;;;;5.73;78.17;98925.19;5089278;27;20034;-77
2024/03/17 06:48:25;;;;;;;8.80;5.80;;;;;;;5.69;78.39;98915.91;5095923;28;20036;-77
2024/03/17 06:50:52;;;;;;;5.82;5.20;;;;;;;5.80;78.25;98931.38;5079627;27;20034;-77
2024/03/17 06:53:18;;;;;;;10.02;5.68;;;;;;;6.01;78.37;98944.72;5081437;28;20036;-75
2024/03/17 06:55:46;;;;;;;6.80;4.80;;;;;;;6.07;78.65;98927.88;5076198;27;20063;-77
2024/03/17 06:58:11;;;;;;;5.90;4.93;;;;;;;6.18;78.66;98927.34;5089605;28;20032;-78
2024/03/17 07:00:36;;;;;;;5.60;4.88;;;;;;;6.10;78.25;98898.91;5103971;27;20038;-76
2024/03/17 07:03:02;;;;;;;7.22;4.72;;;;;;;6.28;78.74;98920.56;5062489;28;20186;-76
2024/03/17 07:05:29;;;;;;;5.18;4.63;;;;;;;6.37;78.37;98926.56;5088100;27;20462;-77
2024/03/17 07:07:55;;;;;;;6.90;4.78;;;;;;;6.55;77.92;98942.09;5076686;28;20487;-77
2024/03/17 07:10:21;;;;;;;6.82;5.32;;;;;;;6.46;77.92;98922.72;5103851;27;20034;-77
2024/03/17 07:12:47;;;;;;;5.82;4.35;;;;;;;6.51;77.47;98914.09;5063077;28;20081;-77
2024/03/17 07:15:12;;;;;;;5.20;4.50;;;;;;;6.56;78.17;98917.78;5086019;28;20078;-77
2024/03/17 07:17:37;;;;;;;4.75;4.30;;;;;;;6.40;77.51;98859.31;5090919;28;20042;-77
2024/03/17 07:20:08;;;;;;;6.05;4.70;;;;;;;6.79;77.00;98915.59;5069157;28;20573;-77
2024/03/17 07:22:33;;;;;;;5.15;4.65;;;;;;;6.77;77.41;98903.44;5074857;28;20384;-77
2024/03/17 07:25:01;;;;;;;6.78;5.78;;;;;;;6.81;77.25;98910.06;5071442;28;20039;-74
2024/03/17 07:27:30;;;;;;;7.15;5.38;;;;;;;6.86;76.92;98923.66;5087754;28;20036;-76
2024/03/17 07:29:56;;;;;;;7.60;5.32;;;;;;;6.75;78.42;98895.63;5090392;28;20040;-77
2024/03/17 07:32:23;;;;;;;8.18;5.03;;;;;;;6.93;77.70;98919.94;5085102;28;20047;-77
2024/03/17 07:34:49;;;;;;;6.85;5.03;;;;;;;7.04;77.38;98907.00;5074973;28;20024;-77
2024/03/17 07:37:15;;;;;;;5.95;5.15;;;;;;;7.16;76.93;98919.59;5095313;28;20039;-77
2024/03/17 07:39:40;;;;;;;6.45;5.40;;;;;;;7.08;76.85;98910.91;5079376;28;20026;-77
2024/03/17 07:42:07;;;;;;;7.28;5.05;;;;;;;7.15;76.61;98912.56;5071512;28;20035;-77
2024/03/17 07:44:34;;;;;;;6.78;5.95;;;;;;;7.10;76.75;98892.78;5087689;27;20076;-77
2024/03/17 07:47:05;;;;;;;5.45;4.93;;;;;;;7.05;76.98;98873.84;5061339;28;20040;-78
2024/03/17 07:49:31;;;;;;;6.75;5.05;;;;;;;7.35;76.20;98915.28;5082891;27;20031;-75
2024/03/17 07:51:57;;;;;;;5.68;4.97;;;;;;;7.36;76.20;98904.34;5089694;27;20028;-77
2024/03/17 07:54:26;;;;;;;9.65;5.60;;;;;;;7.49;76.27;98908.88;5062809;28;20032;-77
2024/03/17 07:56:51;;;;;;;7.03;5.03;;;;;;;7.51;76.43;98906.81;5097098;27;20028;-77
2024/03/17 07:59:17;;;;;;;7.25;5.70;;;;;;;7.64;75.93;98917.50;5085750;28;20106;-77
2024/03/17 08:01:44;;;;;;;7.28;6.05;;;;;;;7.71;75.79;98902.25;5092736;28;20028;-77
2024/03/17 08:04:11;;;;;;;6.25;5.65;;;;;;;7.64;75.70;98874.63;5070444;28;20368;-77
2024/03/17 08:06:37;;;;;;;7.25;5.28;;;;;;;7.80;75.59;98890.25;5086789;28;20028;-77
2024/03/17 08:09:03;;;;;;;6.13;5.53;;;;;;;7.80;75.59;98884.06;5110196;28;20050;-77
2024/03/17 08:11:28;;;;;;;6.43;5.00;;;;;;;8.10;74.49;98912.03;5091748;28;20024;-77
2024/03/17 08:13:55;;;;;;;6.85;5.03;;;;;;;8.03;75.10;98895.97;5094359;28;20035;-77
2024/03/17 08:16:20;;;;;;;5.97;5.15;;;;;;;8.10;75.10;98891.41;5107226;28;20486;-77
2024/03/17 08:18:46;;;;;;;13.43;10.52;;;;;;;8.22;74.20;98900.47;5066336;28;20046;-77
2024/03/17 08:21:11;;;;;;;18.20;13.00;;;;;;;8.22;74.88;98895.09;5090242;28;20028;-77
2024/03/17 08:23:41;;;;;;;19.70;13.00;;;;;;;8.38;73.92;98909.91;5090190;27;20034;-77
2024/03/17 08:26:06;;;;;;;7.97;6.35;;;;;;;8.38;72.87;98909.91;5121338;27;20027;-77
2024/03/17 08:28:32;;;;;;;9.05;6.70;;;;;;;8.42;72.20;98894.22;5093265;27;20114;-77
2024/03/17 08:30:58;;;;;;;8.95;6.50;;;;;;;8.49;71.07;98897.69;5102121;27;20421;-77
2024/03/17 08:33:24;;;;;;;8.50;6.10;;;;;;;8.54;70.63;98895.19;5084112;28;20162;-77
2024/03/17 08:35:58;;;;;;;6.90;6.20;;;;;;;8.52;69.72;98905.34;5100862;27;20019;-77
2024/03/17 08:38:24;;;;;;;7.07;6.30;;;;;;;8.58;69.53;98894.56;5085397;28;20074;-76
2024/03/17 08:40:53;;;;;;;8.70;6.10;;;;;;;8.67;69.31;98892.44;5121068;27;20027;-76
2024/03/17 08:43:19;;;;;;;7.25;6.38;;;;;;;8.75;68.88;98897.56;5086415;28;20395;-77
2024/03/17 08:45:45;;;;;;;7.18;5.90;;;;;;;8.89;68.59;98896.44;5085951;27;20016;-77
2024/03/17 08:48:10;;;;;;;7.35;6.25;;;;;;;8.96;67.99;98889.19;5102110;28;20479;-77
2024/03/17 08:50:36;;;;;;;7.13;5.90;;;;;;;8.94;67.35;98877.81;5101223;27;20088;-77
2024/03/17 08:53:02;;;;;;;7.05;6.35;;;;;;;9.03;67.45;98884.59;5084367;28;20038;-77
2024/03/17 08:55:27;;;;;;;6.45;5.80;;;;;;;9.04;67.48;98883.53;5070807;27;20023;-78
2024/03/17 08:57:53;;;;;;;6.75;5.80;;;;;;;9.05;64.38;98869.06;5107914;27;20035;-76
2024/03/17 09:00:18;;;;;;;7.40;5.70;;;;;;;9.16;63.42;98883.66;5099689;27;20471;-76
2024/03/17 09:02:44;;;;;;;8.25;4.97;;;;;;;9.14;62.04;98873.13;5089475;28;20043;-76
2024/03/17 09:05:09;;;;;;;6.68;5.45;;;;;;;9.23;61.48;98885.25;5082963;28;20016;-76
2024/03/17 09:07:34;;;;;;;6.15;4.95;;;;;;;9.20;60.60;98882.16;5081438;28;20118;-76
2024/03/17 09:10:00;;;;;;;5.60;5.10;;;;;;;9.22;60.33;98883.59;5086588;27;20556;-76
2024/03/17 09:12:28;;;;;;;6.13;5.53;;;;;;;9.21;60.62;98879.28;5101569;28;20031;-76
2024/03/17 09:14:54;;;;;;;6.50;5.88;;;;;;;9.04;61.63;98864.72;5080068;28;20068;-76
2024/03/17 09:17:20;;;;;;;7.97;6.55;;;;;;;8.99;62.74;98869.91;5095471;28;20032;-75
2024/03/17 09:19:47;;;;;;;8.25;6.50;;;;;;;9.20;63.16;98903.66;5072751;27;20051;-72
2024/03/17 09:22:13;;;;;;;8.13;6.07;;;;;;;9.23;63.12;98893.31;5068543;28;20055;-75
2024/03/17 09:24:38;;;;;;;8.18;6.15;;;;;;;9.14;63.81;98886.56;5090734;27;20050;-78
2024/03/17 09:27:05;;;;;;;7.78;6.45;;;;;;;9.09;63.82;98883.69;5070633;28;20452;-76
2024/03/17 09:29:30;;;;;;;9.48;6.03;;;;;;;9.19;62.67;98891.28;5082990;27;20388;-76
2024/03/17 09:31:55;;;;;;;5.75;5.22;;;;;;;8.98;63.39;98862.91;5106305;28;20037;-76
2024/03/17 09:34:21;;;;;;;6.38;5.35;;;;;;;9.21;63.60;98881.97;5095617;27;20035;-77
2024/03/17 09:36:47;;;;;;;7.65;5.82;;;;;;;9.25;63.25;98883.16;5072862;27;20030;-77
2024/03/17 09:39:14;;;;;;;6.78;5.72;;;;;;;9.13;62.64;98854.50;5068160;27;20561;-76
2024/03/17 09:41:39;;;;;;;7.63;5.05;;;;;;;9.38;62.34;98874.97;5091923;28;20027;-77
2024/03/17 09:44:05;;;;;;;6.90;5.22;;;;;;;9.53;61.40;98886.22;5111544;27;20016;-77
2024/03/17 09:46:31;;;;;;;6.50;5.35;;;;;;;9.59;61.56;98888.03;5082418;28;20044;-77
2024/03/17 09:48:57;;;;;;;6.32;5.30;;;;;;;9.68;60.83;98875.94;5103754;27;20050;-77
2024/03/17 09:51:25;;;;;;;5.57;5.07;;;;;;;9.79;59.64;98877.09;5104940;28;20072;-76
2024/03/17 09:53:50;;;;;;;7.45;5.32;;;;;;;9.79;58.78;98860.13;5102459;27;20027;-77
2024/03/17 09:56:21;;;;;;;5.70;5.10;;;;;;;9.89;59.92;98860.44;5095140;28;20092;-76
2024/03/17 09:58:47;;;;;;;6.53;5.43;;;;;;;10.00;60.00;98857.81;5096239;27;20057;-77
2024/03/17 10:01:13;;;;;;;6.50;5.63;;;;;;;10.09;59.25;98855.63;5100737;28;20023;-77
2024/03/17 10:03:51;;;;;;;6.30;5.38;;;;;;;10.21;59.31;98865.47;5098335;27;20046;-77
2024/03/17 10:06:19;;;;;;;7.20;5.28;;;;;;;10.10;58.55;98854.59;5076073;28;20044;-77
2024/03/17 10:08:49;;;;;;;5.95;5.35;;;;;;;10.03;59.22;98859.25;5096120;27;20023;-77
2024/03/17 10:11:16;;;;;;;7.60;5.80;;;;;;;10.13;58.38;98863.06;5086721;28;20031;-77
2024/03/17 10:13:46;;;;;;;6.68;5.93;;;;;;;10.17;57.96;98858.91;5099996;27;20034;-77
2024/03/17 10:16:25;;;;;;;7.35;5.65;;;;;;;10.27;57.38;98863.72;5074250;28;20402;-77
2024/03/17 10:19:06;;;;;;;6.55;5.07;;;;;;;10.27;56.95;98866.41;5098913;27;20039;-77
2024/03/17 10:21:32;;;;;;;8.38;5.40;;;;;;;10.15;56.78;98855.59;5097076;27;20122;-77
2024/03/17 10:24:19;;;;;;;6.82;5.70;;;;;;;10.23;56.51;98857.16;5104430;27;20034;-77
2024/03/17 10:26:49;;;;;;;6.70;5.35;;;;;;;10.31;57.33;98848.78;5079279;27;20050;-77
2024/03/17 10:29:29;;;;;;;7.85;5.80;;;;;;;10.32;57.09;98842.34;5091540;27;20054;-77
2024/03/17 10:32:05;;;;;;;6.10;5.15;;;;;;;10.31;57.07;98827.25;5105316;27;20084;-78
2024/03/17 10:34:35;;;;;;;6.13;5.28;;;;;;;10.31;56.79;98838.00;5097833;27;20043;-77
2024/03/17 10:37:06;;;;;;;6.43;5.35;;;;;;;10.38;56.27;98817.22;5095918;27;20049;-77
2024/03/17 10:39:32;;;;;;;5.60;4.75;;;;;;;10.43;56.43;98815.47;5104785;27;20035;-77
2024/03/17 10:42:02;;;;;;;6.97;5.22;;;;;;;10.62;56.06;98840.47;5087926;28;20030;-77
2024/03/17 10:44:29;;;;;;;6.00;5.40;;;;;;;10.21;55.46;98811.63;5082553;27;20031;-78
2024/03/17 10:46:56;;;;;;;8.48;5.38;;;;;;;10.56;55.45;98830.63;5079225;28;20023;-77
2024/03/17 10:49:24;;;;;;;6.25;5.25;;;;;;;10.52;55.18;98824.06;5086472;28;20447;-77
2024/03/17 10:51:54;;;;;;;6.10;5.50;;;;;;;10.55;55.89;98830.88;5121858;28;20041;-75
2024/03/17 10:54:30;;;;;;;6.10;5.50;;;;;;;10.46;55.84;98824.97;5102561;28;20039;-77
2024/03/17 10:56:57;;;;;;;;;;;;;;;10.31;55.54;98848.78;5097484;27;20042;-76
2024/03/17 10:59:39;;;;;;;6.80;5.47;;;;;;;10.47;55.42;98831.16;5082600;28;20323;-77
2024/03/17 11:02:17;;;;;;;7.45;5.35;;;;;;;10.41;55.40;98833.72;5081705;27;20039;-77
2024/03/17 11:04:42;;;;;;;6.40;5.78;;;;;;;10.53;55.25;98836.47;5105806;28;20045;-77
2024/03/17 11:07:16;;;;;;;6.90;5.32;;;;;;;10.51;55.39;98832.34;5085693;28;20388;-77
2024/03/17 11:09:41;;;;;;;6.38;5.20;;;;;;;10.48;55.27;98816.66;5092958;28;20035;-78
2024/03/17 11:12:46;;;;;;;6.72;5.72;;;;;;;10.68;55.13;98828.81;5122264;27;20097;-77
2024/03/17 11:15:29;;;;;;;7.45;5.43;;;;;;;10.84;54.92;98828.13;5089532;27;20065;-78
2024/03/17 11:18:09;;;;;;;6.30;5.55;;;;;;;10.97;54.56;98822.53;5099250;27;20122;-77
2024/03/17 11:20:39;;;;;;;6.80;5.10;;;;;;;10.96;54.63;98814.69;5082483;28;20490;-77
2024/03/17 11:23:05;;;;;;;8.05;5.32;;;;;;;11.15;54.41;98821.66;5089758;27;20500;-77
2024/03/17 11:25:40;;;;;;;6.00;5.22;;;;;;;11.10;55.67;98783.78;5081766;28;20026;-77
2024/03/17 11:28:10;;;;;;;6.47;5.47;;;;;;;11.27;54.27;98803.56;5119081;27;20035;-77
2024/03/17 11:30:46;;;;;;;7.20;5.95;;;;;;;11.47;54.68;98811.34;5077395;28;20073;-76
2024/03/17 11:33:29;;;;;;;6.68;5.20;;;;;;;11.34;53.52;98811.59;5118919;27;20058;-77
2024/03/17 11:36:23;;;;;;;6.38;5.53;;;;;;;11.35;54.02;98802.41;5083876;27;20032;-78
2024/03/17 11:38:55;;;;;;;8.30;6.20;;;;;;;11.30;53.47;98789.63;5097135;28;20448;-77
2024/03/17 11:41:40;;;;;;;7.78;5.85;;;;;;;11.25;54.33;98812.97;5069173;28;20089;-77
2024/03/17 11:44:28;;;;;;;6.13;5.43;;;;;;;11.41;53.78;98813.09;5078821;27;20497;-77
2024/03/17 11:47:03;;;;;;;6.45;5.57;;;;;;;11.62;54.24;98800.91;5077462;28;20040;-77